Time;durP1;ratioP1;P1;durP2;ratioP2;P2;SDS_P1;SDS_P2;PMS_P1;PMS_P2;Temp;Humidity;BMP_temperature;BMP_pressure;BME280_temperature;BME280_humidity;BME280_pressure;Samples;Min_cycle;Max_cycle;Signal;HPM_P1;HPM_P2
2022/04/21 00:02:15;;;;;;;6.97;1.85;;;;;;;9.71;42.92;99538.50;5010317;28;20111;-64
2022/04/21 00:04:41;;;;;;;10.30;2.00;;;;;;;9.66;43.34;99551.63;5008630;28;20042;-65
2022/04/21 00:07:07;;;;;;;6.38;1.98;;;;;;;9.67;43.21;99542.50;5008575;28;20050;-64
2022/04/21 00:09:33;;;;;;;6.45;1.60;;;;;;;9.64;42.81;99540.09;5010036;28;20351;-65
2022/04/21 00:11:58;;;;;;;7.93;1.95;;;;;;;9.46;43.10;99533.78;5008397;28;20049;-64
2022/04/21 00:14:24;;;;;;;9.70;2.03;;;;;;;9.58;43.36;99543.38;5009718;28;20053;-64
2022/04/21 00:16:50;;;;;;;6.43;1.90;;;;;;;9.58;43.30;99544.25;5008714;28;20544;-64
2022/04/21 00:19:15;;;;;;;6.68;1.70;;;;;;;9.64;43.17;99549.06;5009964;28;20045;-63
2022/04/21 00:24:25;;;;;;;8.27;1.85;;;;;;;9.50;43.49;99543.28;5008238;28;20042;-64
2022/04/21 00:26:51;;;;;;;9.30;1.80;;;;;;;9.52;43.71;99554.78;4994792;28;20050;-64
2022/04/21 00:29:17;;;;;;;6.70;2.20;;;;;;;9.49;43.62;99550.53;5013699;28;20046;-64
2022/04/21 00:31:43;;;;;;;7.03;1.98;;;;;;;9.49;44.06;99552.38;5013870;28;20049;-63
2022/04/21 00:34:09;;;;;;;9.80;1.80;;;;;;;9.44;43.97;99549.28;4995982;28;20131;-65
2022/04/21 00:36:35;;;;;;;6.85;2.03;;;;;;;9.41;43.99;99543.16;5013842;28;20058;-65
2022/04/21 00:39:01;;;;;;;8.07;2.38;;;;;;;9.34;44.16;99536.66;5012407;28;20042;-64
2022/04/21 00:41:27;;;;;;;6.72;1.85;;;;;;;9.41;44.21;99545.88;5014125;28;20085;-64
2022/04/21 00:43:53;;;;;;;10.55;2.50;;;;;;;9.29;44.37;99536.25;5013575;28;20138;-63
2022/04/21 00:46:20;;;;;;;6.35;2.10;;;;;;;9.32;44.55;99554.81;5013558;28;20081;-64
2022/04/21 00:48:45;;;;;;;9.35;2.10;;;;;;;9.25;44.69;99548.34;5011911;28;20503;-64
2022/04/21 00:51:12;;;;;;;9.43;1.80;;;;;;;9.08;44.87;99527.50;5013389;28;20137;-64
2022/04/21 00:53:38;;;;;;;7.88;2.10;;;;;;;9.28;45.02;99558.81;5013138;28;20042;-64
2022/04/21 00:56:06;;;;;;;8.52;2.08;;;;;;;9.22;45.28;99550.47;5013624;28;20046;-64
2022/04/21 00:58:31;;;;;;;9.68;1.98;;;;;;;9.15;44.93;99552.88;4979756;28;20053;-64
2022/04/21 01:00:57;;;;;;;8.13;2.25;;;;;;;9.02;45.28;99522.66;4995254;28;20065;-64
2022/04/21 01:03:24;;;;;;;7.93;2.13;;;;;;;8.90;45.50;99522.84;5011679;28;20050;-64
2022/04/21 01:05:50;;;;;;;11.88;2.10;;;;;;;8.93;45.39;99535.19;5011544;28;20506;-64
2022/04/21 01:08:15;;;;;;;9.85;2.25;;;;;;;9.08;45.47;99554.47;5013274;28;20073;-65
2022/04/21 01:10:42;;;;;;;6.65;2.08;;;;;;;9.03;45.88;99554.91;4995271;28;20048;-64
2022/04/21 01:13:10;;;;;;;8.02;2.35;;;;;;;8.97;46.30;99554.63;5013167;28;20129;-64
2022/04/21 01:15:37;;;;;;;6.00;1.85;;;;;;;8.86;46.22;99537.59;5012568;28;20140;-63
2022/04/21 01:18:04;;;;;;;6.85;2.30;;;;;;;9.01;46.27;99554.19;5013193;28;20054;-65
2022/04/21 01:20:30;;;;;;;7.20;1.98;;;;;;;8.99;46.35;99558.00;5011649;28;20413;-63
2022/04/21 01:22:55;;;;;;;7.82;2.03;;;;;;;8.98;46.34;99556.31;5013147;28;20042;-63
2022/04/21 01:25:22;;;;;;;8.13;2.10;;;;;;;8.96;46.33;99548.38;5011426;28;20069;-63
2022/04/21 01:27:54;;;;;;;6.43;2.08;;;;;;;8.80;46.71;99532.75;5012853;28;20580;-65
2022/04/21 01:30:20;;;;;;;10.73;2.25;;;;;;;8.86;46.87;99548.38;5012792;28;20144;-64
2022/04/21 01:32:48;;;;;;;7.00;2.00;;;;;;;8.91;46.75;99545.25;5012880;28;20628;-64
2022/04/21 01:35:14;;;;;;;8.30;2.45;;;;;;;8.79;47.05;99541.00;4994912;28;20516;-63
2022/04/21 01:43:09;;;;;;;6.22;1.90;;;;;;;8.72;47.66;99545.25;5011139;28;20466;-63
2022/04/21 01:45:35;;;;;;;7.82;2.20;;;;;;;8.81;47.75;99539.88;4994733;28;20050;-64
2022/04/21 01:48:02;;;;;;;6.72;2.13;;;;;;;8.75;48.20;99547.69;5012705;28;20069;-63
2022/04/21 01:50:28;;;;;;;10.85;1.98;;;;;;;8.77;47.87;99541.13;5012353;28;20077;-64
2022/04/21 01:52:54;;;;;;;7.32;2.00;;;;;;;8.75;48.44;99548.53;5013027;28;20077;-64
2022/04/21 01:55:20;;;;;;;7.05;1.90;;;;;;;8.72;48.37;99543.41;4995693;28;20057;-63
2022/04/21 01:57:45;;;;;;;7.60;2.00;;;;;;;8.72;48.04;99535.31;5012479;28;20050;-64
2022/04/21 02:00:12;;;;;;;6.30;1.90;;;;;;;8.70;48.54;99542.69;5013150;28;20110;-64
2022/04/21 02:02:37;;;;;;;6.38;1.67;;;;;;;8.66;48.71;99527.81;5012907;28;20060;-65
2022/04/21 02:05:04;;;;;;;6.70;1.70;;;;;;;8.67;48.60;99532.22;5010772;28;20046;-64
2022/04/21 02:07:30;;;;;;;5.57;1.60;;;;;;;8.69;48.93;99541.00;5010741;28;20153;-65
2022/04/21 02:09:56;;;;;;;8.70;1.90;;;;;;;8.64;49.17;99548.66;5012272;28;20454;-63
2022/04/21 02:12:28;;;;;;;7.65;2.15;;;;;;;8.57;49.46;99542.16;5012165;28;20061;-64
2022/04/21 02:14:53;;;;;;;6.32;1.90;;;;;;;8.59;49.36;99548.22;5010547;28;20137;-63
2022/04/21 02:17:19;;;;;;;6.57;1.90;;;;;;;8.41;49.54;99511.22;5011725;28;20533;-64
2022/04/21 02:19:46;;;;;;;7.28;2.00;;;;;;;8.49;49.94;99532.06;5011693;28;20042;-63
2022/04/21 02:22:12;;;;;;;7.07;2.17;;;;;;;8.52;49.80;99528.22;4993969;28;20072;-63
2022/04/21 02:24:38;;;;;;;6.75;1.85;;;;;;;8.49;50.35;99529.38;5011688;28;20053;-64
2022/04/21 02:27:04;;;;;;;6.90;1.83;;;;;;;8.31;50.74;99515.72;5011532;28;20139;-63
2022/04/21 02:29:30;;;;;;;6.43;1.85;;;;;;;8.36;50.50;99513.44;5010198;28;20076;-64
2022/04/21 02:31:56;;;;;;;7.53;1.90;;;;;;;8.44;50.68;99531.63;5010152;28;20049;-65
2022/04/21 02:34:22;;;;;;;10.32;2.10;;;;;;;8.39;51.12;99529.34;5011600;28;20077;-66
2022/04/21 02:36:48;;;;;;;7.68;1.80;;;;;;;8.48;51.10;99534.88;5011119;28;20107;-66
2022/04/21 02:39:13;;;;;;;9.65;1.83;;;;;;;8.29;51.54;99533.84;5011478;28;20041;-64
2022/04/21 02:41:39;;;;;;;8.88;1.65;;;;;;;8.31;51.78;99526.50;5010884;28;20413;-67
2022/04/21 02:44:05;;;;;;;8.25;2.10;;;;;;;8.30;52.19;99527.50;5011289;28;20053;-64
2022/04/21 02:46:33;;;;;;;9.45;2.00;;;;;;;8.23;51.95;99523.66;5009696;28;20096;-64
2022/04/21 02:49:00;;;;;;;6.68;1.90;;;;;;;8.18;52.22;99526.75;5008765;28;20046;-63
2022/04/21 02:51:28;;;;;;;6.60;1.85;;;;;;;8.24;52.03;99536.13;5009788;28;20046;-65
2022/04/21 02:59:23;;;;;;;7.03;2.17;;;;;;;8.18;52.75;99547.44;5011133;28;20073;-65
2022/04/21 03:01:49;;;;;;;7.75;2.45;;;;;;;8.13;52.71;99536.25;5011106;28;20124;-64
2022/04/21 03:04:15;;;;;;;6.97;1.92;;;;;;;8.12;53.19;99539.94;5011456;28;20053;-65
2022/04/21 03:06:40;;;;;;;10.50;1.92;;;;;;;8.07;52.92;99539.47;5009603;28;20141;-64
2022/04/21 03:09:06;;;;;;;7.78;2.28;;;;;;;8.08;53.00;99541.16;5011204;28;20045;-64
2022/04/21 03:11:32;;;;;;;9.70;1.70;;;;;;;7.98;53.20;99538.47;5009106;28;20525;-64
2022/04/21 03:13:58;;;;;;;6.47;1.63;;;;;;;7.97;52.96;99539.44;5010648;28;20128;-66
2022/04/21 03:16:23;;;;;;;6.00;1.70;;;;;;;7.98;53.10;99539.31;5010870;28;20415;-65
2022/04/21 03:18:49;;;;;;;7.20;1.38;;;;;;;8.07;54.03;99555.63;5010004;28;20420;-65
2022/04/21 03:26:43;;;;;;;6.35;1.60;;;;;;;7.92;54.77;99572.16;5011015;28;20046;-65
2022/04/21 03:29:09;;;;;;;10.98;1.80;;;;;;;7.92;55.10;99558.69;5010465;28;20050;-65
2022/04/21 03:31:35;;;;;;;5.57;1.67;;;;;;;7.92;55.71;99564.09;5010680;28;20054;-65
2022/04/21 03:34:02;;;;;;;11.90;1.70;;;;;;;7.98;57.50;99568.94;5011971;28;20046;-65
2022/04/21 03:36:28;;;;;;;6.20;1.70;;;;;;;7.82;57.01;99562.34;5010271;28;20486;-64
2022/04/21 03:38:53;;;;;;;6.25;1.70;;;;;;;7.64;57.86;99567.50;5011208;28;20061;-65
2022/04/21 03:41:19;;;;;;;6.93;2.13;;;;;;;7.76;59.24;99558.38;5010728;28;20135;-65
2022/04/21 03:43:45;;;;;;;6.57;1.90;;;;;;;7.63;59.60;99572.03;5009998;28;20042;-68
2022/04/21 03:46:12;;;;;;;6.50;1.65;;;;;;;7.62;60.36;99567.66;5009171;28;20042;-65
2022/04/21 03:48:38;;;;;;;8.73;2.25;;;;;;;7.67;60.30;99565.41;5010360;28;20058;-65
2022/04/21 03:51:03;;;;;;;7.15;1.80;;;;;;;7.68;59.88;99566.28;5008935;28;20041;-64
2022/04/21 03:53:30;;;;;;;6.03;1.65;;;;;;;7.61;59.40;99548.97;5009127;28;20392;-68
2022/04/21 03:55:55;;;;;;;6.13;1.67;;;;;;;7.57;59.84;99552.88;5009401;28;20132;-64
2022/04/21 03:58:21;;;;;;;7.95;2.10;;;;;;;7.59;59.56;99532.94;5010361;28;20074;-63
2022/04/21 04:00:47;;;;;;;5.07;1.73;;;;;;;7.65;58.14;99534.25;5008257;28;20105;-64
2022/04/21 04:03:14;;;;;;;7.22;1.75;;;;;;;7.73;57.69;99542.50;5007896;28;20045;-65
2022/04/21 04:05:40;;;;;;;6.13;1.73;;;;;;;7.73;57.57;99542.50;5007864;28;20061;-65
2022/04/21 04:10:52;;;;;;;8.52;1.77;;;;;;;7.84;57.25;99550.47;4978075;28;20065;-66
2022/04/21 04:13:24;;;;;;;6.80;1.60;;;;;;;7.77;57.72;99537.69;4991325;28;20042;-66
2022/04/21 04:15:51;;;;;;;6.63;1.80;;;;;;;7.78;58.10;99542.94;5008602;28;20060;-65
2022/04/21 04:18:22;;;;;;;7.75;2.00;;;;;;;7.72;57.03;99530.03;5008417;28;20106;-65
2022/04/21 04:20:48;;;;;;;7.47;1.70;;;;;;;7.78;57.53;99540.22;5009753;28;20088;-65
2022/04/21 04:23:18;;;;;;;6.47;1.52;;;;;;;7.70;58.48;99527.47;5009647;28;20107;-65
2022/04/21 04:25:44;;;;;;;;;;;;;;;7.76;57.81;99536.84;4992213;28;20149;-65
2022/04/21 04:28:09;;;;;;;8.40;1.90;;;;;;;7.74;58.32;99534.28;5009721;28;20019;-67
2022/04/21 04:30:38;;;;;;;5.10;1.40;;;;;;;7.59;58.86;99518.66;5009264;28;20413;-67
2022/04/21 04:33:05;;;;;;;5.95;1.60;;;;;;;7.55;59.40;99544.13;5009076;28;20465;-65
2022/04/21 04:35:31;;;;;;;6.18;1.70;;;;;;;7.56;60.17;99540.44;4991569;28;20034;-65
2022/04/21 04:37:58;;;;;;;7.80;1.58;;;;;;;7.60;60.42;99550.78;5009332;28;20053;-64
2022/04/21 04:40:25;;;;;;;8.02;2.00;;;;;;;7.53;60.92;99538.00;4991223;28;20065;-65
2022/04/21 04:42:55;;;;;;;5.72;1.77;;;;;;;7.60;60.98;99536.47;5009116;28;20080;-65
2022/04/21 04:48:05;;;;;;;8.38;1.98;;;;;;;7.62;61.11;99534.53;5008456;28;20050;-70
2022/04/21 04:50:32;;;;;;;7.20;2.10;;;;;;;7.56;61.65;99533.22;5009955;28;20123;-68
2022/04/21 04:52:58;;;;;;;8.77;2.28;;;;;;;7.64;60.50;99538.78;5009599;28;20049;-65
2022/04/21 04:55:25;;;;;;;7.55;1.77;;;;;;;7.72;59.34;99541.66;5009515;28;20042;-65
2022/04/21 04:57:51;;;;;;;5.80;1.80;;;;;;;7.72;58.79;99555.09;5009104;28;20120;-65
2022/04/21 05:00:17;;;;;;;6.28;1.88;;;;;;;7.74;59.29;99550.41;5007238;28;20465;-66
2022/04/21 05:02:44;;;;;;;8.60;1.85;;;;;;;7.91;58.55;99561.53;4977594;28;20085;-65
2022/04/21 05:05:11;;;;;;;5.93;1.60;;;;;;;7.83;58.84;99559.53;4973273;28;20498;-66
2022/04/21 05:07:39;;;;;;;6.55;1.67;;;;;;;7.77;59.37;99554.69;4988816;28;20077;-66
2022/04/21 05:10:07;;;;;;;7.28;2.00;;;;;;;7.74;60.91;99557.63;4977111;28;20097;-64
2022/04/21 05:12:33;;;;;;;7.72;2.08;;;;;;;7.71;60.33;99571.34;4977993;28;20066;-65
2022/04/21 05:14:59;;;;;;;15.93;2.35;;;;;;;7.68;60.42;99582.41;4992918;28;20126;-65
2022/04/21 05:17:26;;;;;;;8.90;2.63;;;;;;;7.62;60.49;99586.47;4973519;28;20042;-65
2022/04/21 05:19:55;;;;;;;7.22;1.70;;;;;;;7.44;60.45;99586.25;5008233;28;20085;-65
2022/04/21 05:22:26;;;;;;;6.63;1.90;;;;;;;7.44;61.41;99578.19;5000768;28;20039;-64
2022/04/21 05:24:53;;;;;;;8.15;2.10;;;;;;;7.53;61.15;99589.97;4979314;28;20573;-63
2022/04/21 05:27:19;;;;;;;7.85;2.05;;;;;;;7.39;61.43;99577.72;4974009;28;20037;-69
2022/04/21 05:32:35;;;;;;;6.32;1.80;;;;;;;7.46;60.91;99605.81;4997448;28;20034;-67
2022/04/21 05:35:03;;;;;;;7.95;2.03;;;;;;;7.39;61.66;99593.88;4990294;28;20077;-70
2022/04/21 05:37:30;;;;;;;11.25;1.88;;;;;;;7.49;62.79;99619.00;4979799;28;20080;-67
2022/04/21 05:39:56;;;;;;;6.85;1.98;;;;;;;7.35;63.67;99624.72;4993833;28;20038;-69
2022/04/21 05:42:23;;;;;;;6.68;2.10;;;;;;;7.27;65.45;99632.56;4979095;28;20046;-66
2022/04/21 05:44:52;;;;;;;6.35;1.98;;;;;;;7.27;67.54;99623.63;4973685;28;20509;-62
2022/04/21 05:47:19;;;;;;;7.38;2.13;;;;;;;7.17;69.55;99631.66;5005742;28;20041;-64
2022/04/21 05:49:45;;;;;;;7.80;1.70;;;;;;;7.19;71.17;99635.03;4973246;28;20387;-62
2022/04/21 05:52:13;;;;;;;8.02;1.80;;;;;;;7.19;72.31;99635.03;5007563;28;20614;-63
2022/04/21 05:54:39;;;;;;;7.63;1.90;;;;;;;6.96;72.36;99624.41;4961023;28;20394;-62
2022/04/21 05:57:05;;;;;;;7.95;2.00;;;;;;;7.16;72.81;99641.53;4995627;28;20136;-58
2022/04/21 05:59:32;;;;;;;7.18;2.03;;;;;;;7.15;74.19;99644.34;5011480;28;20096;-64
2022/04/21 06:01:59;;;;;;;8.60;2.25;;;;;;;7.20;74.02;99647.50;5009264;28;20136;-59
2022/04/21 06:04:25;;;;;;;8.73;2.67;;;;;;;7.18;74.42;99644.94;5020590;28;20130;-59
2022/04/21 06:06:51;;;;;;;9.25;2.60;;;;;;;7.23;75.70;99647.25;5025921;28;20136;-59
2022/04/21 06:09:17;;;;;;;8.00;2.00;;;;;;;7.15;75.29;99668.56;4995438;28;20045;-60
2022/04/21 06:11:46;;;;;;;6.85;2.00;;;;;;;6.97;75.45;99654.81;5028380;28;20041;-61
2022/04/21 06:14:12;;;;;;;6.85;2.13;;;;;;;6.98;75.59;99654.69;5029706;28;20045;-63
2022/04/21 06:16:38;;;;;;;6.15;1.90;;;;;;;6.80;76.02;99637.44;5023465;28;20056;-63
2022/04/21 06:19:04;;;;;;;9.90;2.40;;;;;;;7.04;76.56;99668.59;5029304;28;20459;-61
2022/04/21 06:21:29;;;;;;;6.22;2.15;;;;;;;6.88;75.98;99647.53;5013962;28;20076;-62
2022/04/21 06:23:55;;;;;;;8.65;2.70;;;;;;;7.01;76.53;99675.91;5011494;28;20132;-62
2022/04/21 06:26:25;;;;;;;9.30;2.60;;;;;;;6.94;76.98;99680.09;5018043;28;20057;-62
2022/04/21 06:28:51;;;;;;;;;;;;;;;6.91;76.02;99680.38;5011603;28;20457;-61
2022/04/21 06:31:17;;;;;;;9.32;1.95;;;;;;;6.96;76.63;99686.22;5025391;28;20371;-61
2022/04/21 06:33:43;;;;;;;8.00;2.55;;;;;;;6.86;75.68;99677.19;5029285;28;20081;-60
2022/04/21 06:36:09;;;;;;;8.32;2.60;;;;;;;6.96;75.68;99675.47;5017798;28;20053;-60
2022/04/21 06:38:34;;;;;;;8.70;2.92;;;;;;;7.10;75.66;99693.13;5011461;28;20092;-60
2022/04/21 06:41:01;;;;;;;8.55;2.63;;;;;;;7.14;75.16;99702.66;5019822;28;20045;-61
2022/04/21 06:48:57;;;;;;;23.05;3.75;;;;;;;7.33;75.95;99703.78;5011333;28;20469;-60
2022/04/21 06:51:24;;;;;;;29.35;3.20;;;;;;;7.25;76.46;99701.75;5022071;28;20045;-62
2022/04/21 06:53:50;;;;;;;14.50;3.40;;;;;;;7.33;74.38;99696.56;5029012;28;20496;-58
2022/04/21 06:56:16;;;;;;;8.85;2.47;;;;;;;7.28;72.62;99693.44;5025749;28;20050;-61
2022/04/21 06:58:42;;;;;;;9.93;3.00;;;;;;;7.27;72.75;99702.47;5013053;28;20042;-61
2022/04/21 07:01:07;;;;;;;7.70;2.53;;;;;;;7.30;73.61;99709.44;5022455;28;20148;-61
2022/04/21 07:03:35;;;;;;;15.43;3.20;;;;;;;7.23;73.57;99701.88;5011180;28;20136;-61
2022/04/21 07:06:02;;;;;;;10.68;3.00;;;;;;;7.16;74.24;99686.38;5026600;28;20082;-59
2022/04/21 07:08:27;;;;;;;10.15;3.03;;;;;;;7.18;74.52;99695.19;5006644;28;20048;-61
2022/04/21 07:10:53;;;;;;;8.05;2.58;;;;;;;7.01;74.98;99721.63;5015326;28;20037;-60
2022/04/21 07:13:19;;;;;;;10.35;2.50;;;;;;;7.09;75.73;99706.69;5028650;28;20512;-58
2022/04/21 07:15:45;;;;;;;7.60;2.50;;;;;;;7.11;75.84;99728.94;5024493;28;20091;-58
2022/04/21 07:18:14;;;;;;;12.38;3.20;;;;;;;7.00;77.15;99708.31;5028747;28;20099;-60
2022/04/21 07:20:39;;;;;;;10.77;2.88;;;;;;;7.10;77.17;99720.03;5018568;28;20470;-61
2022/04/21 07:23:05;;;;;;;8.32;2.75;;;;;;;7.05;76.97;99703.41;5009068;28;20137;-60
2022/04/21 07:25:32;;;;;;;17.80;3.05;;;;;;;7.21;77.86;99729.88;5015466;28;20473;-60
2022/04/21 07:27:57;;;;;;;9.00;2.65;;;;;;;7.31;78.18;99730.78;5010571;28;20079;-59
2022/04/21 07:30:23;;;;;;;8.15;2.58;;;;;;;7.22;78.21;99736.97;5025747;28;20504;-58
2022/04/21 07:32:49;;;;;;;9.63;2.50;;;;;;;7.35;79.54;99742.16;5027093;28;20056;-58
2022/04/21 07:35:15;;;;;;;9.13;2.92;;;;;;;7.32;79.48;99748.66;5022615;28;20045;-56
2022/04/21 07:37:42;;;;;;;10.20;2.75;;;;;;;7.18;79.78;99740.88;5026514;28;20045;-57
2022/04/21 07:40:08;;;;;;;8.15;2.58;;;;;;;7.15;80.13;99736.59;5010218;28;20093;-61
2022/04/21 07:42:33;;;;;;;19.98;3.50;;;;;;;7.10;82.64;99754.13;5011710;28;20053;-58
2022/04/21 07:45:01;;;;;;;12.63;2.85;;;;;;;7.10;80.76;99759.50;5022397;28;20065;-60
2022/04/21 07:47:27;;;;;;;11.65;3.00;;;;;;;7.13;79.61;99757.41;5020002;28;20045;-59
2022/04/21 07:49:53;;;;;;;9.43;3.00;;;;;;;6.92;79.20;99708.94;5007256;28;20548;-60
2022/04/21 07:55:09;;;;;;;10.68;3.67;;;;;;;7.29;79.46;99769.56;5022980;28;20052;-61
2022/04/21 07:57:35;;;;;;;8.77;2.80;;;;;;;7.11;80.63;99766.56;5009127;28;20054;-59
2022/04/21 08:00:02;;;;;;;22.63;3.67;;;;;;;7.00;81.14;99757.53;4987464;28;20050;-61
2022/04/21 08:02:39;;;;;;;18.67;3.13;;;;;;;7.15;81.25;99773.41;5023310;28;20049;-59
2022/04/21 08:05:05;;;;;;;9.23;2.78;;;;;;;7.07;83.46;99770.50;5017124;28;20442;-59
2022/04/21 08:07:31;;;;;;;12.10;2.90;;;;;;;6.99;84.32;99771.97;4993197;28;20124;-64
2022/04/21 08:09:58;;;;;;;12.55;3.50;;;;;;;6.91;84.40;99793.25;5016610;28;20041;-61
2022/04/21 08:12:24;;;;;;;9.90;3.08;;;;;;;6.90;85.35;99796.91;5015240;28;20053;-62
2022/04/21 08:14:51;;;;;;;8.85;2.92;;;;;;;6.83;85.80;99795.69;5023351;28;20078;-60
2022/04/21 08:17:16;;;;;;;9.00;3.30;;;;;;;6.90;86.76;99796.91;5025127;28;20068;-60
2022/04/21 08:19:42;;;;;;;8.80;3.28;;;;;;;6.83;86.57;99795.69;5022576;28;20049;-60
2022/04/21 08:22:08;;;;;;;9.38;3.08;;;;;;;6.58;87.10;99779.81;5021870;28;20053;-60
2022/04/21 08:33:00;;;;;;;15.20;3.42;;;;;;;6.46;90.83;99797.78;5023485;28;20064;-59
2022/04/21 08:35:26;;;;;;;7.72;2.95;;;;;;;6.57;90.99;99805.84;5021118;28;20120;-64
2022/04/21 08:37:52;;;;;;;20.70;3.20;;;;;;;6.42;91.75;99799.84;5021399;28;20062;-59
2022/04/21 08:40:18;;;;;;;11.57;3.67;;;;;;;6.44;91.90;99819.41;5025215;28;20033;-60
2022/04/21 08:42:44;;;;;;;10.07;3.97;;;;;;;6.48;91.11;99828.06;5027406;28;20204;-64
2022/04/21 08:45:10;;;;;;;10.73;4.00;;;;;;;6.46;90.93;99819.25;5020888;28;20042;-64
2022/04/21 08:47:39;;;;;;;14.65;3.88;;;;;;;6.32;90.46;99798.84;4986162;28;20073;-70
2022/04/21 08:50:07;;;;;;;12.93;3.45;;;;;;;6.45;90.62;99833.66;5026549;28;20044;-59
2022/04/21 08:52:34;;;;;;;8.85;3.30;;;;;;;6.47;90.87;99837.97;4999663;28;20109;-60
2022/04/21 08:55:03;;;;;;;8.35;3.20;;;;;;;6.46;91.56;99840.75;5006466;28;20037;-61
2022/04/21 08:57:30;;;;;;;11.75;4.43;;;;;;;6.42;91.47;99837.44;5019555;28;20075;-59
2022/04/21 08:59:59;;;;;;;10.43;3.25;;;;;;;6.43;92.15;99847.19;5016216;28;20403;-63
2022/04/21 09:02:35;;;;;;;9.73;4.00;;;;;;;6.49;92.13;99852.09;5028261;28;20057;-64
2022/04/21 09:05:02;;;;;;;15.00;3.65;;;;;;;6.33;91.82;99840.88;5026341;28;20037;-61
2022/04/21 09:07:29;;;;;;;8.40;3.20;;;;;;;6.46;93.09;99857.72;5029633;28;20077;-58
2022/04/21 09:10:03;;;;;;;12.77;3.25;;;;;;;6.56;92.36;99873.97;5024016;28;20076;-62
2022/04/21 09:12:29;;;;;;;9.80;2.75;;;;;;;6.47;92.15;99871.97;5026596;28;20600;-66
2022/04/21 09:14:57;;;;;;;10.52;3.58;;;;;;;6.67;91.94;99859.69;5024711;28;20045;-62
2022/04/21 09:17:24;;;;;;;10.77;3.60;;;;;;;6.53;92.72;99880.41;5030211;28;20151;-58
2022/04/21 09:19:59;;;;;;;7.93;2.88;;;;;;;6.64;91.63;99866.16;5017839;28;20041;-64
2022/04/21 09:22:26;;;;;;;8.07;2.50;;;;;;;6.69;91.45;99863.09;5012376;28;20361;-64
2022/04/21 09:24:53;;;;;;;10.55;2.90;;;;;;;6.64;91.92;99881.41;5027646;28;20045;-65
2022/04/21 09:27:20;;;;;;;8.65;3.53;;;;;;;6.65;91.83;99872.38;5027850;28;20501;-61
2022/04/21 09:29:46;;;;;;;8.35;2.95;;;;;;;6.67;91.79;99871.28;5026500;28;20390;-68
2022/04/21 09:32:16;;;;;;;7.45;2.72;;;;;;;6.51;92.34;99877.03;5026024;28;20473;-60
2022/04/21 09:34:48;;;;;;;9.25;3.33;;;;;;;6.50;91.93;99883.34;5012611;28;20045;-62
2022/04/21 09:37:19;;;;;;;9.73;2.88;;;;;;;6.60;93.68;99890.69;5028697;28;20497;-58
2022/04/21 09:39:52;;;;;;;8.30;2.40;;;;;;;6.41;92.18;99883.22;5013513;28;20045;-61
2022/04/21 09:42:28;;;;;;;6.82;2.40;;;;;;;6.43;90.97;99894.69;5030574;28;20145;-62
2022/04/21 09:47:51;;;;;;;11.48;3.28;;;;;;;6.58;91.57;99892.63;5025889;28;20045;-63
2022/04/21 09:50:16;;;;;;;11.40;2.92;;;;;;;6.55;91.50;99892.91;5008751;28;20037;-60
2022/04/21 09:52:47;;;;;;;10.00;2.67;;;;;;;6.49;91.90;99892.38;5029317;28;20045;-59
2022/04/21 09:55:32;;;;;;;9.82;3.00;;;;;;;6.50;91.64;99899.47;5015470;28;20052;-59
2022/04/21 09:58:08;;;;;;;13.38;4.60;;;;;;;6.50;91.39;99896.78;5010372;28;20540;-61
2022/04/21 10:00:35;;;;;;;;;;;;;;;6.48;92.23;99901.44;5008358;28;20045;-60
2022/04/21 10:03:02;;;;;;;10.23;4.18;;;;;;;6.45;92.10;99911.53;5028184;28;19966;-63
2022/04/21 10:05:30;;;;;;;11.80;3.35;;;;;;;6.36;93.57;99899.69;4985283;28;20108;-63
2022/04/21 10:08:00;;;;;;;12.98;5.38;;;;;;;6.67;93.32;99913.41;5027059;28;20046;-61
2022/04/21 10:10:29;;;;;;;11.35;3.38;;;;;;;6.58;92.15;99912.31;4986602;28;20114;-62
2022/04/21 10:12:55;;;;;;;9.32;3.50;;;;;;;6.63;91.87;99918.19;5010355;28;20069;-61
2022/04/21 10:15:21;;;;;;;11.10;4.03;;;;;;;6.63;91.88;99933.44;5016844;28;20124;-63
2022/04/21 10:17:47;;;;;;;10.55;2.92;;;;;;;6.53;92.18;99928.75;4994055;28;20064;-62
2022/04/21 10:20:13;;;;;;;7.50;2.70;;;;;;;6.49;93.21;99921.94;5022166;28;20041;-61
2022/04/21 10:22:39;;;;;;;8.02;3.00;;;;;;;6.55;93.76;99946.63;4966660;28;20160;-63
2022/04/21 10:25:07;;;;;;;9.45;3.90;;;;;;;6.64;92.88;99949.44;5011839;28;20053;-62
2022/04/21 10:27:37;;;;;;;11.23;3.58;;;;;;;6.66;91.89;99939.44;4995520;28;20490;-61
2022/04/21 10:30:11;;;;;;;10.32;3.53;;;;;;;6.75;91.21;99941.38;5020716;28;20056;-60
2022/04/21 10:32:49;;;;;;;7.85;2.92;;;;;;;6.64;91.86;99954.81;5009971;28;20061;-60
2022/04/21 10:35:27;;;;;;;9.40;3.35;;;;;;;6.73;92.37;99946.03;5010768;28;20057;-62
2022/04/21 10:38:18;;;;;;;9.10;3.75;;;;;;;6.69;90.63;99949.06;5010553;28;20049;-61
2022/04/21 10:41:06;;;;;;;8.40;2.80;;;;;;;6.76;91.17;99955.66;5017993;28;20090;-62
2022/04/21 10:43:50;;;;;;;10.73;3.17;;;;;;;6.78;90.60;99969.84;5008563;28;20049;-61
2022/04/21 10:46:26;;;;;;;9.73;3.00;;;;;;;6.85;89.82;99960.34;5016691;28;20045;-61
2022/04/21 10:48:52;;;;;;;9.60;3.88;;;;;;;6.72;90.61;99971.19;5027079;28;20046;-63
2022/04/21 10:57:12;;;;;;;9.68;4.00;;;;;;;6.87;91.43;99968.28;5025298;28;20056;-61
2022/04/21 10:57:29;;;;;;;8.35;3.05;;;;;;;6.75;91.83;99962.03;5021125;28;20465;-60
2022/04/21 11:00:03;;;;;;;8.52;3.40;;;;;;;6.75;90.76;99980.84;5025129;28;20042;-61
2022/04/21 11:02:45;;;;;;;8.27;2.85;;;;;;;6.63;90.84;99971.91;5026671;28;20106;-60
2022/04/21 11:05:23;;;;;;;10.43;3.10;;;;;;;6.77;90.59;99995.03;5021145;28;20073;-61
2022/04/21 11:07:53;;;;;;;9.32;3.30;;;;;;;6.63;91.21;99995.22;5020470;28;20442;-60
2022/04/21 11:10:45;;;;;;;;;;;;;;;6.62;90.81;100007.81;4976783;28;20038;-62
2022/04/21 11:13:17;;;;;;;7.28;2.67;;;;;;;6.46;91.61;100005.41;5008216;28;19921;-61
2022/04/21 11:15:49;;;;;;;7.40;2.40;;;;;;;6.46;91.51;100002.72;5020186;28;20419;-61
2022/04/21 11:18:19;;;;;;;8.70;3.30;;;;;;;6.52;91.60;99996.03;5017137;28;20042;-62
2022/04/21 11:20:50;;;;;;;8.10;3.15;;;;;;;6.41;91.70;99991.50;5015752;28;20509;-63
2022/04/21 11:23:45;;;;;;;8.80;3.28;;;;;;;6.64;91.28;100007.69;5010767;28;20080;-61
2022/04/21 11:26:11;;;;;;;7.95;3.05;;;;;;;6.53;91.82;100014.72;5017372;28;20099;-63
2022/04/21 11:28:45;;;;;;;9.70;3.38;;;;;;;6.59;92.20;100008.03;5026586;28;20053;-61
2022/04/21 11:31:11;;;;;;;9.40;3.67;;;;;;;6.61;90.48;100021.34;5024327;28;20555;-59
2022/04/21 11:33:40;;;;;;;11.10;4.00;;;;;;;6.70;90.38;100020.66;5026997;28;20041;-62
2022/04/21 11:36:08;;;;;;;9.63;3.75;;;;;;;6.66;89.78;100016.50;5022325;28;20037;-61
2022/04/21 11:38:43;;;;;;;9.63;3.47;;;;;;;6.64;90.68;100015.72;5008969;28;20128;-60
2022/04/21 11:41:10;;;;;;;10.40;4.10;;;;;;;6.53;91.23;100009.34;5019098;28;20493;-60
2022/04/21 11:43:37;;;;;;;8.88;3.58;;;;;;;6.52;91.16;100013.00;5013290;28;20127;-62
2022/04/21 11:46:05;;;;;;;9.68;3.63;;;;;;;6.50;91.73;100014.94;5019036;28;20527;-61
2022/04/21 11:48:37;;;;;;;9.38;3.53;;;;;;;6.62;90.13;100015.88;5018380;28;20508;-60
2022/04/21 11:51:03;;;;;;;8.52;3.53;;;;;;;6.43;89.97;99997.59;5018987;28;20057;-61
2022/04/21 11:53:33;;;;;;;8.52;3.50;;;;;;;6.60;89.67;100019.63;5024416;28;20060;-63
2022/04/21 11:55:59;;;;;;;10.30;3.75;;;;;;;6.61;89.69;100021.34;5022562;28;20381;-61
2022/04/21 11:58:29;;;;;;;10.52;4.05;;;;;;;6.67;90.02;100031.63;5010123;28;20041;-62
2022/04/21 12:06:37;;;;;;;9.77;3.78;;;;;;;6.70;91.39;100032.25;5025058;28;20061;-63
2022/04/21 12:09:03;;;;;;;;;;;;;;;6.74;91.04;100032.88;5026838;28;20417;-62
2022/04/21 12:11:29;;;;;;;13.93;4.35;;;;;;;6.70;91.23;100042.13;5017292;28;19944;-63
2022/04/21 12:13:55;;;;;;;9.23;3.80;;;;;;;6.69;91.19;100019.78;5018767;28;20050;-62
2022/04/21 12:16:35;;;;;;;12.18;4.72;;;;;;;6.90;90.67;100044.13;5018265;28;20052;-61
2022/04/21 12:19:16;;;;;;;11.57;5.40;;;;;;;6.83;90.80;100032.16;5025453;28;20527;-63
2022/04/21 12:21:43;;;;;;;11.68;4.35;;;;;;;6.70;91.22;100031.41;5017439;28;20099;-62
2022/04/21 12:24:16;;;;;;;12.90;4.85;;;;;;;6.91;91.25;100040.50;5029762;28;20145;-63
2022/04/21 12:26:48;;;;;;;11.63;3.38;;;;;;;6.82;90.29;100041.19;5027831;28;20046;-62
2022/04/21 12:29:15;;;;;;;11.98;4.57;;;;;;;6.98;90.53;100040.84;5030384;28;20068;-62
2022/04/21 12:31:48;;;;;;;9.68;3.80;;;;;;;6.88;90.54;100040.72;5022898;28;20052;-61
2022/04/21 12:34:20;;;;;;;9.70;3.45;;;;;;;6.79;89.93;100019.94;5026852;28;20501;-57
2022/04/21 12:36:57;;;;;;;9.60;4.20;;;;;;;6.95;90.00;100052.72;5024372;28;20038;-62
2022/04/21 12:39:23;;;;;;;;;;;;;;;6.89;89.74;100058.56;5022013;28;20060;-60